Time;durP1;ratioP1;P1;durP2;ratioP2;P2;SDS_P1;SDS_P2;PMS_P1;PMS_P2;Temp;Humidity;BMP_temperature;BMP_pressure;BME280_temperature;BME280_humidity;BME280_pressure;Samples;Min_cycle;Max_cycle;Signal;HPM_P1;HPM_P2
2024/03/26 00:02:21;;;;;;;13.98;5.32;;;;;;;7.70;100.00;98528.13;4982782;28;20562;-59
2024/03/26 00:04:47;;;;;;;14.50;5.00;;;;;;;7.72;100.00;98524.97;4978685;28;20053;-59
2024/03/26 00:07:14;;;;;;;12.00;5.25;;;;;;;7.70;100.00;98514.34;4955911;28;20051;-59
2024/03/26 00:09:40;;;;;;;16.50;4.40;;;;;;;7.70;100.00;98513.56;4979022;28;20592;-58
2024/03/26 00:12:06;;;;;;;13.60;3.75;;;;;;;7.68;100.00;98516.69;4958612;28;20054;-59
2024/03/26 00:14:32;;;;;;;15.27;3.75;;;;;;;7.67;100.00;98520.63;4970267;28;20050;-59
2024/03/26 00:16:59;;;;;;;16.20;3.95;;;;;;;7.65;100.00;98511.16;4970860;28;20420;-59
2024/03/26 00:19:25;;;;;;;8.07;3.20;;;;;;;7.62;100.00;98501.69;4988983;28;20046;-59
2024/03/26 00:21:51;;;;;;;10.15;2.90;;;;;;;7.61;100.00;98505.59;4969900;28;20054;-59
2024/03/26 00:24:17;;;;;;;13.63;3.40;;;;;;;7.61;100.00;98513.06;4970829;28;20386;-59
2024/03/26 00:26:44;;;;;;;22.02;4.93;;;;;;;7.60;100.00;98508.75;4969570;28;20535;-59
2024/03/26 00:29:10;;;;;;;16.90;3.72;;;;;;;7.59;100.00;98505.19;4966714;28;20057;-58
2024/03/26 00:31:36;;;;;;;7.90;3.38;;;;;;;7.60;100.00;98497.75;4984899;28;20054;-59
2024/03/26 00:34:03;;;;;;;17.25;6.10;;;;;;;7.59;100.00;98501.66;4954873;28;20061;-60
2024/03/26 00:36:33;;;;;;;12.50;3.50;;;;;;;7.61;100.00;98505.59;4969735;28;20081;-58
2024/03/26 00:38:59;;;;;;;12.73;4.35;;;;;;;7.61;100.00;98500.09;4969819;28;20421;-59
2024/03/26 00:41:26;;;;;;;8.63;3.15;;;;;;;7.58;100.00;98495.34;4969972;28;20460;-59
2024/03/26 00:43:52;;;;;;;11.20;3.17;;;;;;;7.57;100.00;98499.25;4969540;28;20049;-60
2024/03/26 00:46:18;;;;;;;4.10;2.30;;;;;;;7.54;100.00;98497.28;4966967;28;20531;-59
2024/03/26 00:48:45;;;;;;;12.10;3.42;;;;;;;7.52;100.00;98487.84;4958521;28;20038;-59
2024/03/26 00:51:12;;;;;;;4.72;2.15;;;;;;;7.48;100.00;98485.03;4983926;28;20046;-59
2024/03/26 00:53:38;;;;;;;13.57;2.53;;;;;;;7.46;100.00;98481.88;4962080;28;20046;-60
2024/03/26 00:56:05;;;;;;;7.05;3.20;;;;;;;7.44;100.00;98478.69;4979443;28;20050;-59
2024/03/26 00:58:32;;;;;;;8.32;2.92;;;;;;;7.46;100.00;98478.31;4975199;28;20054;-60
2024/03/26 01:00:58;;;;;;;12.55;3.28;;;;;;;7.44;100.00;98478.69;4968111;28;20537;-60
2024/03/26 01:03:24;;;;;;;14.68;7.07;;;;;;;7.42;100.00;98485.75;4960650;28;20066;-60
2024/03/26 01:05:54;;;;;;;8.77;3.55;;;;;;;7.41;100.00;98487.72;4968736;28;20143;-60
2024/03/26 01:08:21;;;;;;;15.77;4.82;;;;;;;7.39;100.00;98476.28;4966600;28;20070;-59
2024/03/26 01:10:47;;;;;;;15.35;3.88;;;;;;;7.36;100.00;98468.78;4968659;28;20073;-59
2024/03/26 01:13:14;;;;;;;12.45;3.55;;;;;;;7.35;100.00;98464.47;4969583;28;20049;-60
2024/03/26 01:15:41;;;;;;;9.38;2.85;;;;;;;7.32;100.00;98470.72;4967798;28;20054;-60
2024/03/26 01:18:10;;;;;;;16.67;2.80;;;;;;;7.30;100.00;98467.56;4965529;28;20050;-60
2024/03/26 01:20:37;;;;;;;10.55;3.47;;;;;;;7.29;100.00;98460.47;4964958;28;20042;-60
2024/03/26 01:23:04;;;;;;;11.85;3.22;;;;;;;7.28;100.00;98459.66;4985314;28;20054;-61
2024/03/26 01:25:30;;;;;;;11.65;2.75;;;;;;;7.29;100.00;98460.47;4954008;28;20061;-59
2024/03/26 01:27:57;;;;;;;9.55;2.72;;;;;;;7.29;100.00;98460.47;4969767;28;20666;-59
2024/03/26 01:30:24;;;;;;;7.10;3.15;;;;;;;7.29;100.00;98454.97;4973379;28;20051;-59
2024/03/26 01:32:51;;;;;;;11.85;3.53;;;;;;;7.29;100.00;98458.50;4969025;28;20057;-60
2024/03/26 01:35:17;;;;;;;13.85;3.85;;;;;;;7.29;100.00;98463.22;4955029;28;20046;-59
2024/03/26 01:37:44;;;;;;;9.25;3.28;;;;;;;7.28;100.00;98454.16;4969369;28;20420;-59
2024/03/26 01:40:11;;;;;;;10.95;3.85;;;;;;;7.27;100.00;98451.81;4973623;28;20049;-59
2024/03/26 01:42:41;;;;;;;4.53;2.15;;;;;;;7.20;100.00;98449.00;4969291;28;20057;-60
2024/03/26 01:45:08;;;;;;;4.60;2.25;;;;;;;7.11;100.00;98451.25;4971227;28;20049;-61
2024/03/26 01:47:36;;;;;;;6.43;2.72;;;;;;;7.07;100.00;98448.44;4969858;28;20050;-59
2024/03/26 01:50:07;;;;;;;7.75;2.13;;;;;;;7.03;100.00;98442.13;4972297;28;20038;-59
2024/03/26 01:52:34;;;;;;;5.30;2.67;;;;;;;6.98;100.00;98447.19;4969321;28;20065;-59
2024/03/26 01:55:01;;;;;;;5.05;2.35;;;;;;;6.90;100.00;98438.06;4968982;28;20416;-61
2024/03/26 01:57:28;;;;;;;9.02;2.83;;;;;;;6.87;100.00;98438.03;4967891;28;20058;-59
2024/03/26 01:59:55;;;;;;;6.97;2.40;;;;;;;6.88;100.00;98436.88;4966446;28;20047;-59
2024/03/26 02:02:21;;;;;;;8.55;2.60;;;;;;;6.90;100.00;98431.78;4968263;28;20065;-59
2024/03/26 02:04:48;;;;;;;8.07;2.97;;;;;;;6.92;100.00;98435.72;4975951;28;20053;-59
2024/03/26 02:07:15;;;;;;;7.35;3.20;;;;;;;6.94;100.00;98424.34;4966568;28;20054;-60
2024/03/26 02:09:43;;;;;;;10.40;3.40;;;;;;;6.95;100.00;98425.94;4969719;28;20046;-59
2024/03/26 02:12:09;;;;;;;7.05;3.10;;;;;;;6.94;100.00;98433.38;4966268;28;20065;-60
2024/03/26 02:14:36;;;;;;;11.73;3.65;;;;;;;6.92;100.00;98429.44;4966232;28;20078;-59
2024/03/26 02:17:03;;;;;;;8.50;2.85;;;;;;;6.90;100.00;98420.78;4984634;28;20073;-59
2024/03/26 02:19:30;;;;;;;6.32;2.40;;;;;;;6.82;100.00;98413.63;4972924;28;20050;-59
2024/03/26 02:21:56;;;;;;;14.15;3.03;;;;;;;6.78;100.00;98408.06;4970005;28;20054;-59
2024/03/26 02:24:23;;;;;;;9.30;3.35;;;;;;;6.78;100.00;98407.31;4969174;28;20054;-60
2024/03/26 02:26:49;;;;;;;10.13;3.30;;;;;;;6.78;100.00;98402.56;4972496;28;20046;-59
2024/03/26 02:29:15;;;;;;;9.38;3.80;;;;;;;6.79;100.00;98397.88;4964679;28;20043;-60
2024/03/26 02:31:41;;;;;;;12.30;4.20;;;;;;;6.82;100.00;98397.13;4971060;28;20046;-60
2024/03/26 02:34:08;;;;;;;20.35;7.00;;;;;;;6.81;100.00;98398.28;4972745;28;20045;-59
2024/03/26 02:36:34;;;;;;;14.68;4.40;;;;;;;6.82;100.00;98386.91;4971451;28;20076;-59
2024/03/26 02:39:01;;;;;;;14.85;4.47;;;;;;;6.84;100.00;98384.56;4988760;28;20067;-59
2024/03/26 02:41:27;;;;;;;13.60;4.68;;;;;;;6.86;100.00;98373.19;4972689;28;20050;-59
2024/03/26 02:43:54;;;;;;;23.67;6.78;;;;;;;6.89;100.00;98386.19;4973254;28;20058;-60
2024/03/26 02:46:20;;;;;;;14.15;4.60;;;;;;;6.92;100.00;98380.72;4975154;28;20050;-59
2024/03/26 02:48:46;;;;;;;12.82;5.53;;;;;;;6.94;100.00;98372.06;4978307;28;20045;-60
2024/03/26 02:51:12;;;;;;;13.43;6.07;;;;;;;6.96;100.00;98375.25;4972862;28;20053;-60
2024/03/26 02:53:39;;;;;;;18.00;6.47;;;;;;;6.97;100.00;98371.31;4968416;28;20059;-59
2024/03/26 02:56:05;;;;;;;22.85;7.70;;;;;;;6.98;100.00;98361.91;4970436;28;20057;-59
2024/03/26 02:58:31;;;;;;;15.90;6.22;;;;;;;7.00;100.00;98359.56;4973140;28;20057;-59
2024/03/26 03:01:09;;;;;;;13.65;5.95;;;;;;;6.98;100.00;98346.22;5060652;23;20096;-62
2024/03/26 03:03:37;;;;;;;14.40;4.82;;;;;;;7.00;100.00;98345.81;4972390;28;20058;-62
2024/03/26 03:06:05;;;;;;;14.88;5.55;;;;;;;6.98;100.00;98340.69;4972719;28;20118;-62
2024/03/26 03:08:32;;;;;;;12.52;5.00;;;;;;;6.98;100.00;98337.94;4968242;28;20929;-63
2024/03/26 03:10:58;;;;;;;16.58;5.55;;;;;;;7.00;100.00;98332.06;4967931;28;20061;-62
2024/03/26 03:13:24;;;;;;;15.10;5.45;;;;;;;6.99;100.00;98338.75;4952536;28;20047;-62
2024/03/26 03:15:50;;;;;;;15.15;6.22;;;;;;;6.98;100.00;98329.69;4971201;28;20522;-61
2024/03/26 03:18:18;;;;;;;18.95;5.95;;;;;;;6.99;100.00;98330.50;4965510;28;20050;-62
2024/03/26 03:20:45;;;;;;;17.27;5.25;;;;;;;6.99;100.00;98330.50;4971497;28;20061;-62
2024/03/26 03:23:11;;;;;;;14.90;6.45;;;;;;;6.99;100.00;98319.50;4971652;28;20053;-63
2024/03/26 03:25:38;;;;;;;19.02;5.60;;;;;;;6.99;100.00;98320.25;4971806;28;20054;-62
2024/03/26 03:28:05;;;;;;;15.93;5.35;;;;;;;6.98;100.00;98321.44;4970990;28;20053;-62
2024/03/26 03:30:31;;;;;;;15.40;5.55;;;;;;;7.00;100.00;98321.06;4971928;28;20763;-63
2024/03/26 03:32:58;;;;;;;13.43;5.72;;;;;;;7.00;100.00;98310.06;4970740;28;20425;-62
2024/03/26 03:35:24;;;;;;;15.20;4.40;;;;;;;6.99;100.00;98316.75;4970970;28;20813;-62
2024/03/26 03:37:51;;;;;;;10.30;4.18;;;;;;;7.00;100.00;98321.84;4954856;28;20073;-62
2024/03/26 03:40:17;;;;;;;13.57;5.00;;;;;;;7.00;100.00;98316.34;4970702;28;20400;-62
2024/03/26 03:42:44;;;;;;;13.38;4.30;;;;;;;7.01;100.00;98319.91;4971626;28;20503;-61
2024/03/26 03:45:11;;;;;;;15.15;4.82;;;;;;;7.00;100.00;98310.06;4969222;28;20516;-62
2024/03/26 03:47:38;;;;;;;18.25;5.05;;;;;;;7.00;100.00;98310.06;4981414;28;20053;-62
2024/03/26 03:50:04;;;;;;;14.07;5.15;;;;;;;6.98;100.00;98309.66;4970719;28;20404;-62
2024/03/26 03:52:31;;;;;;;11.82;4.65;;;;;;;6.98;100.00;98302.19;4963249;28;20062;-62
2024/03/26 03:54:57;;;;;;;12.27;5.50;;;;;;;6.98;100.00;98304.16;4971031;28;20042;-61
2024/03/26 03:57:24;;;;;;;12.45;4.15;;;;;;;6.97;100.00;98308.84;4970470;28;20416;-61
2024/03/26 03:59:50;;;;;;;9.77;4.93;;;;;;;6.95;100.00;98302.16;4971789;28;20057;-62
2024/03/26 04:02:16;;;;;;;18.92;5.43;;;;;;;6.95;100.00;98307.66;4970122;28;20077;-62
2024/03/26 04:04:43;;;;;;;13.65;4.65;;;;;;;6.95;100.00;98302.16;4964615;28;20530;-62
2024/03/26 04:07:09;;;;;;;13.38;4.18;;;;;;;6.96;100.00;98303.75;4970187;28;20061;-62
2024/03/26 04:09:35;;;;;;;13.35;4.68;;;;;;;6.96;100.00;98304.53;4968227;28;20509;-62
2024/03/26 04:12:02;;;;;;;14.18;4.88;;;;;;;6.96;100.00;98303.75;4967177;28;20065;-61
2024/03/26 04:14:28;;;;;;;11.93;4.07;;;;;;;6.95;100.00;98302.16;4970671;28;20038;-62
2024/03/26 04:16:54;;;;;;;11.07;4.50;;;;;;;6.93;100.00;98296.25;4950625;28;20046;-62
2024/03/26 04:19:21;;;;;;;14.60;3.90;;;;;;;6.93;100.00;98299.78;4967745;28;20047;-62
2024/03/26 04:21:48;;;;;;;9.57;3.40;;;;;;;6.95;100.00;98296.66;4968189;28;20587;-61
2024/03/26 04:24:14;;;;;;;10.05;3.30;;;;;;;6.95;100.00;98296.66;4967536;28;20408;-62
2024/03/26 04:26:41;;;;;;;8.68;3.20;;;;;;;6.94;100.00;98286.81;4967167;28;20508;-62
2024/03/26 04:29:07;;;;;;;10.52;3.20;;;;;;;6.92;100.00;98281.69;4970751;28;20497;-62
2024/03/26 04:31:33;;;;;;;9.38;3.10;;;;;;;6.91;100.00;98284.84;4970367;28;20065;-62
2024/03/26 04:33:59;;;;;;;10.10;2.95;;;;;;;6.90;100.00;98284.06;4960483;28;20539;-62
2024/03/26 04:36:25;;;;;;;9.68;4.45;;;;;;;6.91;100.00;98284.84;4963630;28;20054;-61
2024/03/26 04:38:53;;;;;;;10.15;3.28;;;;;;;6.93;100.00;98285.25;4964079;28;20046;-62
2024/03/26 04:41:21;;;;;;;8.68;2.60;;;;;;;6.91;100.00;98276.59;4970171;28;20085;-62
2024/03/26 04:43:47;;;;;;;7.00;2.67;;;;;;;6.91;100.00;98271.09;4977721;28;20077;-62
2024/03/26 04:46:14;;;;;;;6.13;3.03;;;;;;;6.91;100.00;98280.09;4970381;28;20058;-62
2024/03/26 04:48:40;;;;;;;5.80;2.88;;;;;;;6.91;100.00;98284.84;4970571;28;20516;-62
2024/03/26 04:51:06;;;;;;;7.50;3.55;;;;;;;6.90;100.00;98269.50;4963194;28;20050;-61
2024/03/26 04:53:32;;;;;;;6.70;2.90;;;;;;;6.91;100.00;98273.84;4966950;28;20042;-62
2024/03/26 04:55:58;;;;;;;7.97;3.50;;;;;;;6.90;100.00;98273.03;4968610;28;20057;-62
2024/03/26 04:58:25;;;;;;;10.50;4.28;;;;;;;6.91;100.00;98271.84;4953006;28;20538;-62
2024/03/26 05:00:51;;;;;;;14.38;5.10;;;;;;;6.92;100.00;98272.66;4967151;28;20903;-63
2024/03/26 05:03:17;;;;;;;14.13;4.72;;;;;;;6.94;100.00;98267.56;4970849;28;20401;-62
2024/03/26 05:05:44;;;;;;;12.75;5.28;;;;;;;6.95;100.00;98271.91;4968378;28;20053;-62
2024/03/26 05:08:10;;;;;;;13.52;6.22;;;;;;;6.97;100.00;98272.28;4969687;28;20416;-62
2024/03/26 05:10:36;;;;;;;15.45;7.18;;;;;;;6.97;100.00;98262.09;4958167;28;20508;-61
2024/03/26 05:13:05;;;;;;;18.02;9.48;;;;;;;6.98;100.00;98257.38;4963180;28;20050;-62
2024/03/26 05:15:35;;;;;;;21.33;8.23;;;;;;;7.00;100.00;98252.28;4950094;28;20051;-63
2024/03/26 05:18:02;;;;;;;20.55;8.52;;;;;;;7.00;100.00;98266.03;4970211;28;20050;-62
2024/03/26 05:20:28;;;;;;;18.48;8.80;;;;;;;7.02;100.00;98261.72;4966018;28;20054;-62
2024/03/26 05:22:54;;;;;;;30.10;10.68;;;;;;;7.04;100.00;98266.88;4983238;28;20058;-62
2024/03/26 05:25:20;;;;;;;29.58;9.25;;;;;;;7.06;100.00;98259.03;4968902;28;20054;-62
2024/03/26 05:27:47;;;;;;;24.95;11.13;;;;;;;7.08;100.00;98260.22;4969031;28;20056;-61
2024/03/26 05:30:13;;;;;;;24.63;9.80;;;;;;;7.09;100.00;98255.50;4969009;28;20046;-62
2024/03/26 05:32:40;;;;;;;31.48;11.93;;;;;;;7.10;100.00;98259.81;4970016;28;20058;-61
2024/03/26 05:35:07;;;;;;;19.05;9.93;;;;;;;7.11;100.00;98253.16;4950307;28;20071;-61
2024/03/26 05:37:33;;;;;;;29.35;11.70;;;;;;;7.12;100.00;98252.75;4964844;28;20504;-62
2024/03/26 05:39:59;;;;;;;22.33;10.20;;;;;;;7.13;100.00;98248.06;4965484;28;20504;-62
2024/03/26 05:42:25;;;;;;;24.92;9.60;;;;;;;7.12;100.00;98250.00;4966485;28;20047;-61
2024/03/26 05:44:51;;;;;;;25.35;10.15;;;;;;;7.13;100.00;98254.34;4966186;28;20127;-61
2024/03/26 05:47:18;;;;;;;29.90;10.43;;;;;;;7.14;100.00;98260.66;4967540;28;20057;-61
2024/03/26 05:49:44;;;;;;;28.27;11.65;;;;;;;7.14;100.00;98255.94;4964304;28;20047;-61
2024/03/26 05:52:10;;;;;;;37.65;12.80;;;;;;;7.14;100.00;98255.16;4965292;28;20647;-62
2024/03/26 05:54:36;;;;;;;34.08;13.27;;;;;;;7.15;100.00;98262.22;4973235;28;20535;-61
2024/03/26 05:57:03;;;;;;;40.83;14.65;;;;;;;7.15;100.00;98256.72;4972975;28;20058;-61
2024/03/26 05:59:29;;;;;;;43.63;15.57;;;;;;;7.17;100.00;98243.38;4969934;28;20059;-61
2024/03/26 06:01:56;;;;;;;44.70;17.48;;;;;;;7.17;100.00;98244.19;4972788;28;20069;-62
2024/03/26 06:04:22;;;;;;;49.72;16.63;;;;;;;7.18;100.00;98237.47;4967302;28;20051;-62
2024/03/26 06:06:48;;;;;;;48.80;17.45;;;;;;;7.20;100.00;98242.63;4971826;28;20054;-62
2024/03/26 06:09:14;;;;;;;48.00;18.33;;;;;;;7.20;100.00;98237.88;4972482;28;20058;-62
2024/03/26 06:11:40;;;;;;;47.60;19.02;;;;;;;7.21;100.00;98244.19;4973058;28;20416;-61
2024/03/26 06:14:07;;;;;;;47.72;17.15;;;;;;;7.21;100.00;98244.19;4969934;28;20074;-62
2024/03/26 06:16:33;;;;;;;40.58;15.38;;;;;;;7.23;100.00;98230.81;4967871;28;20420;-62
2024/03/26 06:18:59;;;;;;;44.63;16.55;;;;;;;7.23;100.00;98223.34;4971072;28;20057;-61
2024/03/26 06:21:26;;;;;;;38.53;15.23;;;;;;;7.23;100.00;98219.81;4972818;28;20050;-61
2024/03/26 06:23:52;;;;;;;42.63;17.70;;;;;;;7.24;100.00;98215.91;4961800;28;20054;-62
2024/03/26 06:26:19;;;;;;;43.33;14.55;;;;;;;7.23;100.00;98204.09;4971988;28;20054;-61
2024/03/26 06:28:45;;;;;;;27.67;11.95;;;;;;;7.23;100.00;98197.78;4988302;28;20132;-61
2024/03/26 06:31:11;;;;;;;36.28;12.63;;;;;;;7.21;100.00;98198.19;4972605;28;20455;-62
2024/03/26 06:33:37;;;;;;;32.03;11.90;;;;;;;7.22;100.00;98201.75;4969802;28;20516;-62
2024/03/26 06:36:04;;;;;;;30.45;9.13;;;;;;;7.22;100.00;98191.53;4971656;28;21063;-62
2024/03/26 06:38:30;;;;;;;20.45;7.45;;;;;;;7.21;100.00;98205.66;4972105;28;20424;-61
2024/03/26 06:40:57;;;;;;;25.27;8.50;;;;;;;7.21;100.00;98200.94;4972042;28;20061;-61
2024/03/26 06:43:23;;;;;;;21.55;8.07;;;;;;;7.21;100.00;98194.66;4972796;28;20039;-62
2024/03/26 06:45:49;;;;;;;29.05;9.15;;;;;;;7.20;100.00;98193.09;4987987;28;20530;-62
2024/03/26 06:48:16;;;;;;;26.15;9.73;;;;;;;7.22;100.00;98190.72;4972267;28;20057;-62
2024/03/26 06:50:42;;;;;;;24.55;9.50;;;;;;;7.22;100.00;98191.53;4969963;28;20143;-63
2024/03/26 06:53:09;;;;;;;21.25;8.45;;;;;;;7.22;100.00;98187.97;4977377;28;20042;-62
2024/03/26 06:55:35;;;;;;;21.77;8.40;;;;;;;7.23;100.00;98195.03;4971653;28;20046;-63
2024/03/26 06:58:01;;;;;;;22.25;8.70;;;;;;;7.23;100.00;98192.28;4961278;28;20046;-62
2024/03/26 07:00:27;;;;;;;28.05;9.65;;;;;;;7.25;100.00;98206.47;4981624;28;20046;-62
2024/03/26 07:02:57;;;;;;;25.67;10.60;;;;;;;7.26;100.00;98192.31;4970075;28;20050;-62
2024/03/26 07:05:26;;;;;;;25.60;11.05;;;;;;;7.27;100.00;98188.41;4968745;28;20051;-62
2024/03/26 07:07:52;;;;;;;25.80;11.38;;;;;;;7.27;100.00;98182.09;4979475;28;20057;-63
2024/03/26 07:10:19;;;;;;;33.92;13.95;;;;;;;7.27;100.00;98184.84;4963153;28;20511;-62
2024/03/26 07:12:45;;;;;;;36.00;12.75;;;;;;;7.27;100.00;98179.34;4971262;28;20050;-62
2024/03/26 07:15:12;;;;;;;32.38;12.93;;;;;;;7.28;100.00;98187.22;4969592;28;20065;-63
2024/03/26 07:17:38;;;;;;;35.67;15.20;;;;;;;7.26;100.00;98181.31;4971639;28;20385;-62
2024/03/26 07:20:09;;;;;;;44.30;16.25;;;;;;;7.25;100.00;98178.97;4971301;28;20112;-61
2024/03/26 07:22:37;;;;;;;45.70;15.55;;;;;;;7.26;100.00;98180.53;4938362;28;20062;-61
2024/03/26 07:25:04;;;;;;;40.25;17.48;;;;;;;7.26;100.00;98184.06;4965503;28;20705;-61
2024/03/26 07:27:30;;;;;;;37.58;16.83;;;;;;;7.26;100.00;98188.78;4962794;28;20059;-61
2024/03/26 07:29:57;;;;;;;33.42;17.05;;;;;;;7.25;100.00;98178.97;4968155;28;20065;-61
2024/03/26 07:32:23;;;;;;;44.13;17.70;;;;;;;7.26;100.00;98183.28;4971666;28;20065;-61
2024/03/26 07:34:50;;;;;;;40.25;17.88;;;;;;;7.26;100.00;98180.53;4971973;28;20055;-62
2024/03/26 07:37:16;;;;;;;47.90;18.67;;;;;;;7.26;100.00;98188.78;4968383;28;20074;-61
2024/03/26 07:39:42;;;;;;;46.80;19.63;;;;;;;7.25;100.00;98184.47;4968497;28;20058;-61
2024/03/26 07:42:08;;;;;;;48.60;19.25;;;;;;;7.27;100.00;98190.38;4987249;28;20054;-61
2024/03/26 07:44:35;;;;;;;46.53;18.83;;;;;;;7.28;100.00;98172.69;4959477;28;20053;-61
2024/03/26 07:47:03;;;;;;;44.88;18.55;;;;;;;7.29;100.00;98182.50;4972484;28;20058;-62
2024/03/26 07:49:29;;;;;;;44.53;19.48;;;;;;;7.29;100.00;98174.25;4971726;28;20050;-61
2024/03/26 07:51:55;;;;;;;49.03;20.60;;;;;;;7.30;100.00;98182.13;4973073;28;20420;-62
2024/03/26 07:54:22;;;;;;;40.28;19.77;;;;;;;7.31;100.00;98182.91;4971644;28;20055;-61
2024/03/26 07:56:48;;;;;;;42.00;18.35;;;;;;;7.30;100.00;98176.63;4963246;28;20508;-61
2024/03/26 07:59:15;;;;;;;42.80;18.00;;;;;;;7.32;100.00;98176.22;4969949;28;20504;-62
2024/03/26 08:01:41;;;;;;;46.90;19.05;;;;;;;7.31;100.00;98171.91;4969997;28;20531;-59
2024/03/26 08:04:07;;;;;;;45.03;17.58;;;;;;;7.33;100.00;98169.56;4968400;28;20054;-59
2024/03/26 08:06:33;;;;;;;39.97;16.08;;;;;;;7.32;100.00;98170.72;4969730;28;20412;-59
2024/03/26 08:08:59;;;;;;;43.72;15.65;;;;;;;7.31;100.00;98167.19;4970674;28;20512;-59
2024/03/26 08:11:26;;;;;;;39.75;16.52;;;;;;;7.30;100.00;98168.38;4968206;28;20420;-59
2024/03/26 08:13:52;;;;;;;35.85;15.40;;;;;;;7.30;100.00;98170.34;4966430;28;20053;-60
2024/03/26 08:16:18;;;;;;;32.80;15.68;;;;;;;7.30;100.00;98164.84;4970058;28;20038;-60
2024/03/26 08:18:44;;;;;;;40.38;16.83;;;;;;;7.30;100.00;98168.38;4969906;28;20050;-59
2024/03/26 08:21:11;;;;;;;30.90;14.93;;;;;;;7.32;100.00;98162.47;4969564;28;20057;-59
2024/03/26 08:23:38;;;;;;;35.50;13.35;;;;;;;7.32;100.00;98167.97;4969880;28;20444;-59
2024/03/26 08:26:04;;;;;;;45.80;15.55;;;;;;;7.32;100.00;98168.78;4969923;28;20735;-60
2024/03/26 08:28:30;;;;;;;33.40;14.90;;;;;;;7.32;100.00;98167.97;4970373;28;21145;-59
2024/03/26 08:30:57;;;;;;;39.45;14.57;;;;;;;7.33;100.00;98169.56;4964505;28;20142;-59
2024/03/26 08:33:23;;;;;;;24.30;13.07;;;;;;;7.32;100.00;98174.28;4970390;28;20054;-60
2024/03/26 08:35:50;;;;;;;34.22;12.77;;;;;;;7.31;100.00;98171.91;4967792;28;20050;-60
2024/03/26 08:38:16;;;;;;;40.45;15.10;;;;;;;7.32;100.00;98162.47;4969818;28;20053;-60
2024/03/26 08:40:42;;;;;;;28.58;12.30;;;;;;;7.33;100.00;98170.34;4971175;28;20042;-59
2024/03/26 08:43:08;;;;;;;30.02;12.88;;;;;;;7.33;100.00;98166.81;4971125;28;20053;-60
2024/03/26 08:45:39;;;;;;;28.33;12.98;;;;;;;7.34;100.00;98160.13;4967997;28;20061;-60
2024/03/26 08:48:06;;;;;;;32.78;13.75;;;;;;;7.35;100.00;98161.72;4958335;28;20051;-60
2024/03/26 08:50:32;;;;;;;37.50;14.13;;;;;;;7.35;100.00;98154.25;4947201;28;20046;-59
2024/03/26 08:52:58;;;;;;;36.85;14.02;;;;;;;7.37;100.00;98153.84;4969546;28;20049;-60
2024/03/26 08:55:25;;;;;;;28.63;13.45;;;;;;;7.38;100.00;98144.41;4970322;28;20797;-59
2024/03/26 08:57:51;;;;;;;34.63;14.02;;;;;;;7.41;100.00;98146.41;4968316;28;20053;-59
2024/03/26 09:00:18;;;;;;;42.17;15.68;;;;;;;7.40;100.00;98142.06;4969863;28;20685;-59
2024/03/26 09:02:44;;;;;;;34.75;14.85;;;;;;;7.42;100.00;98145.22;4966632;28;20065;-60
2024/03/26 09:05:10;;;;;;;42.08;15.90;;;;;;;7.43;100.00;98141.28;4980088;28;20049;-59
2024/03/26 09:07:37;;;;;;;38.22;13.40;;;;;;;7.43;100.00;98138.53;4965688;28;20051;-60
2024/03/26 09:10:06;;;;;;;28.58;12.80;;;;;;;7.45;100.00;98138.13;4979142;28;20519;-59
2024/03/26 09:12:38;;;;;;;26.17;13.52;;;;;;;7.46;100.00;98128.72;4969028;28;20057;-59
2024/03/26 09:15:05;;;;;;;26.65;12.45;;;;;;;7.47;100.00;98131.06;4968916;28;20057;-60
2024/03/26 09:17:31;;;;;;;37.00;15.65;;;;;;;7.48;100.00;98132.66;4966838;28;20611;-59
2024/03/26 09:19:58;;;;;;;36.70;13.43;;;;;;;7.48;100.00;98126.34;4967673;28;20420;-59
2024/03/26 09:22:24;;;;;;;30.23;12.48;;;;;;;7.47;100.00;98125.56;4968333;28;20062;-59
2024/03/26 09:24:51;;;;;;;35.08;11.75;;;;;;;7.48;100.00;98124.41;4951518;28;20086;-59
2024/03/26 09:27:17;;;;;;;40.85;12.88;;;;;;;7.49;100.00;98116.94;4966844;28;20137;-59
2024/03/26 09:29:43;;;;;;;34.75;12.15;;;;;;;7.50;100.00;98116.53;4968408;28;20401;-59
2024/03/26 09:32:09;;;;;;;35.35;13.27;;;;;;;7.51;100.00;98122.84;4970920;28;20492;-59
2024/03/26 09:34:36;;;;;;;32.80;11.10;;;;;;;7.50;100.00;98119.28;4969452;28;20390;-59
2024/03/26 09:37:02;;;;;;;38.17;14.25;;;;;;;7.49;100.00;98117.72;4961354;28;20050;-59
2024/03/26 09:39:29;;;;;;;32.15;14.07;;;;;;;7.49;100.00;98112.22;4966826;28;20058;-59
2024/03/26 09:42:01;;;;;;;34.45;12.88;;;;;;;7.50;100.00;98113.78;4973026;28;20512;-60
2024/03/26 09:44:29;;;;;;;;;;;;;;;7.50;100.00;98107.47;4953481;28;20072;-59
2024/03/26 09:46:57;;;;;;;33.53;13.00;;;;;;;7.51;100.00;98104.34;4969365;28;19925;-59
2024/03/26 09:49:26;;;;;;;36.92;15.60;;;;;;;7.52;100.00;98105.16;4972014;28;20062;-60
2024/03/26 09:51:53;;;;;;;40.03;15.63;;;;;;;7.56;100.00;98106.72;4986416;28;20424;-59
2024/03/26 09:54:20;;;;;;;38.10;14.20;;;;;;;7.61;100.00;98094.53;4969227;28;20500;-60
2024/03/26 09:56:47;;;;;;;37.67;16.92;;;;;;;7.69;100.00;98094.16;4969669;28;20042;-59
2024/03/26 09:59:14;;;;;;;33.90;15.05;;;;;;;7.76;100.00;98091.41;4969255;28;20049;-59
2024/03/26 10:01:44;;;;;;;36.45;14.10;;;;;;;7.77;100.00;98090.25;4969441;28;20069;-59
2024/03/26 10:04:10;;;;;;;36.20;15.85;;;;;;;7.77;100.00;98098.53;4969573;28;20530;-60
2024/03/26 10:06:37;;;;;;;35.50;14.20;;;;;;;7.76;100.00;98088.66;4968928;28;20418;-59
2024/03/26 10:09:05;;;;;;;35.53;15.85;;;;;;;7.72;100.00;98082.38;4969808;28;20649;-59
2024/03/26 10:11:31;;;;;;;41.33;19.10;;;;;;;7.73;100.00;98085.94;4961517;28;20046;-59
2024/03/26 10:13:57;;;;;;;36.60;16.27;;;;;;;7.73;100.00;98078.44;4963797;28;20046;-59
2024/03/26 10:16:24;;;;;;;39.05;16.38;;;;;;;7.73;100.00;98089.44;4963259;28;20742;-60
2024/03/26 10:18:50;;;;;;;48.30;16.88;;;;;;;7.71;100.00;98091.81;4967496;28;20058;-59
2024/03/26 10:21:16;;;;;;;42.22;17.08;;;;;;;7.67;100.00;98079.22;4968078;28;20062;-59
2024/03/26 10:23:45;;;;;;;43.03;17.33;;;;;;;7.63;100.00;98072.91;4965603;28;20425;-61
2024/03/26 10:26:11;;;;;;;33.03;15.20;;;;;;;7.63;100.00;98087.47;4961831;28;20057;-58
2024/03/26 10:28:38;;;;;;;48.75;18.08;;;;;;;7.62;100.00;98080.41;4965991;28;20498;-60
2024/03/26 10:31:04;;;;;;;43.45;17.85;;;;;;;7.62;100.00;98082.34;4958351;28;20073;-60
2024/03/26 10:33:31;;;;;;;48.47;19.33;;;;;;;7.62;100.00;98085.13;4965209;28;20436;-60
2024/03/26 10:35:57;;;;;;;36.40;15.38;;;;;;;7.61;100.00;98072.50;4965576;28;20059;-60
2024/03/26 10:38:24;;;;;;;39.85;15.93;;;;;;;7.60;100.00;98073.72;4972263;28;20054;-60
2024/03/26 10:41:01;;;;;;;39.35;16.95;;;;;;;7.60;100.00;98068.19;4972390;28;20057;-60
2024/03/26 10:43:28;;;;;;;47.03;17.88;;;;;;;7.59;100.00;98066.63;4972339;28;20057;-60
2024/03/26 10:45:54;;;;;;;38.35;16.55;;;;;;;7.57;100.00;98052.47;4971552;28;20397;-60
2024/03/26 10:48:22;;;;;;;38.58;18.23;;;;;;;7.58;100.00;98059.53;4968965;28;20063;-60
2024/03/26 10:50:52;;;;;;;51.33;18.40;;;;;;;7.58;100.00;98060.31;4970859;28;20046;-60
2024/03/26 10:53:22;;;;;;;39.78;18.17;;;;;;;7.58;100.00;98060.31;4968469;28;20061;-60
2024/03/26 10:55:50;;;;;;;47.70;19.35;;;;;;;7.58;100.00;98054.81;4969469;28;20058;-60
2024/03/26 10:58:17;;;;;;;46.33;16.60;;;;;;;7.57;100.00;98057.97;4972008;28;20050;-60
2024/03/26 11:00:46;;;;;;;51.75;18.38;;;;;;;7.55;100.00;98050.06;4971214;28;20046;-60
2024/03/26 11:03:15;;;;;;;40.13;17.55;;;;;;;7.54;100.00;98043.00;4972083;28;20185;-58
2024/03/26 11:05:41;;;;;;;41.65;17.20;;;;;;;7.57;100.00;98042.22;4970211;28;20062;-61
2024/03/26 11:08:18;;;;;;;40.67;18.33;;;;;;;7.57;100.00;98047.72;4968985;28;20066;-61
2024/03/26 11:11:18;;;;;;;39.00;18.88;;;;;;;7.59;100.00;98044.59;4971055;28;20046;-60
2024/03/26 11:13:44;;;;;;;39.10;18.98;;;;;;;7.64;100.00;98033.97;4962022;28;20408;-59
2024/03/26 11:16:33;;;;;;;44.47;19.40;;;;;;;7.77;100.00;98035.19;4972068;28;20047;-60
2024/03/26 11:19:37;;;;;;;43.78;20.80;;;;;;;7.84;100.00;98035.16;4971515;28;20058;-60
2024/03/26 11:22:03;;;;;;;38.30;19.35;;;;;;;7.84;100.00;98032.41;4950617;28;20054;-60